sensor_id;sensor_type;location;lat;lon;timestamp;P1;durP1;ratioP1;P2;durP2;ratioP2
47812;SDS011;34221;45.296;9.516;2023-02-28T00:00:02;10.30;;;6.05;;
47812;SDS011;34221;45.296;9.516;2023-02-28T00:00:24;13.15;;;6.20;;
47812;SDS011;34221;45.296;9.516;2023-02-28T00:00:40;12.73;;;5.85;;
47812;SDS011;34221;45.296;9.516;2023-02-28T00:00:55;10.27;;;6.00;;
47812;SDS011;34221;45.296;9.516;2023-02-28T00:01:10;9.38;;;5.82;;
47812;SDS011;34221;45.296;9.516;2023-02-28T00:01:30;13.15;;;6.70;;
47812;SDS011;34221;45.296;9.516;2023-02-28T00:01:45;13.35;;;6.45;;
47812;SDS011;34221;45.296;9.516;2023-02-28T00:02:00;11.68;;;5.95;;
47812;SDS011;34221;45.296;9.516;2023-02-28T00:02:15;11.57;;;6.25;;
47812;SDS011;34221;45.296;9.516;2023-02-28T00:02:31;12.07;;;6.20;;
47812;SDS011;34221;45.296;9.516;2023-02-28T00:02:46;10.77;;;6.07;;
47812;SDS011;34221;45.296;9.516;2023-02-28T00:03:01;9.73;;;6.00;;
47812;SDS011;34221;45.296;9.516;2023-02-28T00:03:17;10.48;;;6.25;;
47812;SDS011;34221;45.296;9.516;2023-02-28T00:03:32;12.77;;;6.75;;
47812;SDS011;34221;45.296;9.516;2023-02-28T00:03:49;13.93;;;6.45;;
47812;SDS011;34221;45.296;9.516;2023-02-28T00:04:04;11.70;;;5.82;;
47812;SDS011;34221;45.296;9.516;2023-02-28T00:04:19;10.32;;;6.03;;
47812;SDS011;34221;45.296;9.516;2023-02-28T00:04:34;10.75;;;6.25;;
47812;SDS011;34221;45.296;9.516;2023-02-28T00:04:49;10.90;;;6.45;;
47812;SDS011;34221;45.296;9.516;2023-02-28T00:05:07;10.50;;;6.70;;
47812;SDS011;34221;45.296;9.516;2023-02-28T00:05:24;11.35;;;6.82;;
47812;SDS011;34221;45.296;9.516;2023-02-28T00:05:41;12.27;;;6.72;;
47812;SDS011;34221;45.296;9.516;2023-02-28T00:05:56;10.23;;;6.32;;
47812;SDS011;34221;45.296;9.516;2023-02-28T00:06:11;10.48;;;5.82;;
47812;SDS011;34221;45.296;9.516;2023-02-28T00:06:26;10.40;;;5.72;;
47812;SDS011;34221;45.296;9.516;2023-02-28T00:06:42;9.88;;;6.05;;
47812;SDS011;34221;45.296;9.516;2023-02-28T00:06:57;10.55;;;6.32;;
47812;SDS011;34221;45.296;9.516;2023-02-28T00:07:11;10.47;;;6.10;;
47812;SDS011;34221;45.296;9.516;2023-02-28T00:07:27;10.10;;;5.77;;
47812;SDS011;34221;45.296;9.516;2023-02-28T00:07:42;9.40;;;5.70;;
47812;SDS011;34221;45.296;9.516;2023-02-28T00:07:57;10.93;;;6.38;;
47812;SDS011;34221;45.296;9.516;2023-02-28T00:08:12;12.35;;;6.82;;
47812;SDS011;34221;45.296;9.516;2023-02-28T00:08:27;13.40;;;6.57;;
47812;SDS011;34221;45.296;9.516;2023-02-28T00:08:42;14.75;;;6.60;;
47812;SDS011;34221;45.296;9.516;2023-02-28T00:08:57;13.23;;;6.40;;
47812;SDS011;34221;45.296;9.516;2023-02-28T00:09:12;11.57;;;6.57;;
47812;SDS011;34221;45.296;9.516;2023-02-28T00:09:27;11.20;;;6.82;;
47812;SDS011;34221;45.296;9.516;2023-02-28T00:09:42;11.85;;;6.78;;
47812;SDS011;34221;45.296;9.516;2023-02-28T00:09:57;11.48;;;6.50;;
47812;SDS011;34221;45.296;9.516;2023-02-28T00:10:13;12.38;;;6.85;;
47812;SDS011;34221;45.296;9.516;2023-02-28T00:10:37;11.57;;;6.60;;
47812;SDS011;34221;45.296;9.516;2023-02-28T00:10:52;11.38;;;6.63;;
47812;SDS011;34221;45.296;9.516;2023-02-28T00:11:08;11.05;;;6.50;;
47812;SDS011;34221;45.296;9.516;2023-02-28T00:11:27;11.77;;;6.68;;
47812;SDS011;34221;45.296;9.516;2023-02-28T00:11:42;11.20;;;6.53;;
47812;SDS011;34221;45.296;9.516;2023-02-28T00:11:56;10.10;;;6.40;;
47812;SDS011;34221;45.296;9.516;2023-02-28T00:12:12;13.07;;;6.65;;
47812;SDS011;34221;45.296;9.516;2023-02-28T00:12:27;12.90;;;6.53;;
47812;SDS011;34221;45.296;9.516;2023-02-28T00:12:42;11.02;;;6.30;;
47812;SDS011;34221;45.296;9.516;2023-02-28T00:13:01;10.50;;;6.28;;
47812;SDS011;34221;45.296;9.516;2023-02-28T00:13:19;11.80;;;6.88;;
47812;SDS011;34221;45.296;9.516;2023-02-28T00:13:34;10.60;;;6.53;;
47812;SDS011;34221;45.296;9.516;2023-02-28T00:13:52;12.80;;;6.45;;
47812;SDS011;34221;45.296;9.516;2023-02-28T00:14:07;12.35;;;6.30;;
47812;SDS011;34221;45.296;9.516;2023-02-28T00:14:22;12.02;;;6.65;;
47812;SDS011;34221;45.296;9.516;2023-02-28T00:14:37;11.80;;;6.53;;
47812;SDS011;34221;45.296;9.516;2023-02-28T00:14:52;9.95;;;6.20;;
47812;SDS011;34221;45.296;9.516;2023-02-28T00:15:07;8.90;;;6.13;;
47812;SDS011;34221;45.296;9.516;2023-02-28T00:15:24;11.07;;;6.55;;
47812;SDS011;34221;45.296;9.516;2023-02-28T00:15:40;12.38;;;7.13;;
47812;SDS011;34221;45.296;9.516;2023-02-28T00:15:58;12.07;;;6.82;;
47812;SDS011;34221;45.296;9.516;2023-02-28T00:16:17;11.95;;;6.30;;
47812;SDS011;34221;45.296;9.516;2023-02-28T00:16:34;14.65;;;6.63;;
47812;SDS011;34221;45.296;9.516;2023-02-28T00:16:49;12.25;;;6.50;;
47812;SDS011;34221;45.296;9.516;2023-02-28T00:17:04;11.20;;;6.53;;
47812;SDS011;34221;45.296;9.516;2023-02-28T00:17:19;10.90;;;6.43;;
47812;SDS011;34221;45.296;9.516;2023-02-28T00:17:35;10.82;;;6.38;;
47812;SDS011;34221;45.296;9.516;2023-02-28T00:17:52;14.55;;;6.50;;
47812;SDS011;34221;45.296;9.516;2023-02-28T00:18:07;13.45;;;6.57;;
47812;SDS011;34221;45.296;9.516;2023-02-28T00:18:22;10.68;;;6.40;;
47812;SDS011;34221;45.296;9.516;2023-02-28T00:18:37;11.38;;;6.68;;
47812;SDS011;34221;45.296;9.516;2023-02-28T00:19:12;11.60;;;6.47;;
47812;SDS011;34221;45.296;9.516;2023-02-28T00:19:27;13.68;;;7.03;;
47812;SDS011;34221;45.296;9.516;2023-02-28T00:19:42;12.77;;;6.78;;
47812;SDS011;34221;45.296;9.516;2023-02-28T00:19:57;13.20;;;6.75;;
47812;SDS011;34221;45.296;9.516;2023-02-28T00:20:25;16.65;;;7.22;;
47812;SDS011;34221;45.296;9.516;2023-02-28T00:20:41;13.82;;;6.93;;
47812;SDS011;34221;45.296;9.516;2023-02-28T00:20:56;9.77;;;6.05;;
47812;SDS011;34221;45.296;9.516;2023-02-28T00:21:12;11.27;;;6.20;;
47812;SDS011;34221;45.296;9.516;2023-02-28T00:21:27;11.70;;;6.38;;
47812;SDS011;34221;45.296;9.516;2023-02-28T00:21:42;11.63;;;6.63;;
47812;SDS011;34221;45.296;9.516;2023-02-28T00:21:57;13.57;;;6.80;;
47812;SDS011;34221;45.296;9.516;2023-02-28T00:22:12;12.77;;;6.43;;
47812;SDS011;34221;45.296;9.516;2023-02-28T00:22:26;11.18;;;6.47;;
47812;SDS011;34221;45.296;9.516;2023-02-28T00:22:43;20.55;;;7.40;;
47812;SDS011;34221;45.296;9.516;2023-02-28T00:23:01;21.45;;;7.65;;
47812;SDS011;34221;45.296;9.516;2023-02-28T00:23:16;13.15;;;7.28;;
47812;SDS011;34221;45.296;9.516;2023-02-28T00:23:30;10.68;;;6.85;;
47812;SDS011;34221;45.296;9.516;2023-02-28T00:23:46;10.45;;;6.80;;
47812;SDS011;34221;45.296;9.516;2023-02-28T00:24:01;10.55;;;6.95;;
47812;SDS011;34221;45.296;9.516;2023-02-28T00:24:16;9.40;;;6.63;;
47812;SDS011;34221;45.296;9.516;2023-02-28T00:24:31;10.15;;;6.20;;
47812;SDS011;34221;45.296;9.516;2023-02-28T00:24:46;11.95;;;6.28;;
47812;SDS011;34221;45.296;9.516;2023-02-28T00:25:01;11.00;;;6.53;;
47812;SDS011;34221;45.296;9.516;2023-02-28T00:25:19;10.63;;;7.07;;
47812;SDS011;34221;45.296;9.516;2023-02-28T00:25:37;11.07;;;7.40;;
47812;SDS011;34221;45.296;9.516;2023-02-28T00:25:52;11.52;;;7.25;;
47812;SDS011;34221;45.296;9.516;2023-02-28T00:26:07;10.70;;;6.60;;
47812;SDS011;34221;45.296;9.516;2023-02-28T00:26:22;8.80;;;5.97;;
47812;SDS011;34221;45.296;9.516;2023-02-28T00:26:37;9.25;;;5.97;;
47812;SDS011;34221;45.296;9.516;2023-02-28T00:26:52;10.93;;;6.78;;
47812;SDS011;34221;45.296;9.516;2023-02-28T00:27:07;10.77;;;6.80;;
47812;SDS011;34221;45.296;9.516;2023-02-28T00:27:22;11.05;;;6.57;;
47812;SDS011;34221;45.296;9.516;2023-02-28T00:27:37;10.45;;;6.30;;
47812;SDS011;34221;45.296;9.516;2023-02-28T00:27:54;11.55;;;6.15;;
47812;SDS011;34221;45.296;9.516;2023-02-28T00:28:09;12.82;;;6.07;;
47812;SDS011;34221;45.296;9.516;2023-02-28T00:28:24;16.98;;;6.50;;
47812;SDS011;34221;45.296;9.516;2023-02-28T00:28:39;15.70;;;6.80;;
47812;SDS011;34221;45.296;9.516;2023-02-28T00:28:54;10.77;;;6.97;;
47812;SDS011;34221;45.296;9.516;2023-02-28T00:29:10;10.95;;;6.88;;
47812;SDS011;34221;45.296;9.516;2023-02-28T00:29:25;10.27;;;6.22;;
47812;SDS011;34221;45.296;9.516;2023-02-28T00:29:40;9.63;;;6.00;;
47812;SDS011;34221;45.296;9.516;2023-02-28T00:29:55;10.13;;;6.55;;
47812;SDS011;34221;45.296;9.516;2023-02-28T00:30:14;10.27;;;6.65;;
47812;SDS011;34221;45.296;9.516;2023-02-28T00:30:32;12.00;;;6.25;;
47812;SDS011;34221;45.296;9.516;2023-02-28T00:30:47;15.10;;;6.85;;
47812;SDS011;34221;45.296;9.516;2023-02-28T00:31:02;17.73;;;7.07;;
47812;SDS011;34221;45.296;9.516;2023-02-28T00:31:17;13.23;;;6.22;;
47812;SDS011;34221;45.296;9.516;2023-02-28T00:31:32;10.48;;;6.00;;
47812;SDS011;34221;45.296;9.516;2023-02-28T00:31:47;11.50;;;6.45;;
47812;SDS011;34221;45.296;9.516;2023-02-28T00:32:03;10.88;;;6.60;;
47812;SDS011;34221;45.296;9.516;2023-02-28T00:32:19;10.77;;;6.18;;
47812;SDS011;34221;45.296;9.516;2023-02-28T00:32:34;11.80;;;6.40;;
47812;SDS011;34221;45.296;9.516;2023-02-28T00:32:50;12.00;;;6.53;;
47812;SDS011;34221;45.296;9.516;2023-02-28T00:33:05;12.93;;;6.70;;
47812;SDS011;34221;45.296;9.516;2023-02-28T00:33:20;13.52;;;7.28;;
47812;SDS011;34221;45.296;9.516;2023-02-28T00:33:35;14.45;;;7.05;;
47812;SDS011;34221;45.296;9.516;2023-02-28T00:33:50;13.93;;;6.40;;
47812;SDS011;34221;45.296;9.516;2023-02-28T00:34:06;12.15;;;6.28;;
47812;SDS011;34221;45.296;9.516;2023-02-28T00:34:21;11.63;;;6.38;;
47812;SDS011;34221;45.296;9.516;2023-02-28T00:34:36;13.00;;;6.53;;
47812;SDS011;34221;45.296;9.516;2023-02-28T00:34:51;12.38;;;6.55;;
47812;SDS011;34221;45.296;9.516;2023-02-28T00:35:06;12.25;;;6.38;;
47812;SDS011;34221;45.296;9.516;2023-02-28T00:35:23;13.15;;;6.55;;
47812;SDS011;34221;45.296;9.516;2023-02-28T00:35:38;11.77;;;6.53;;
47812;SDS011;34221;45.296;9.516;2023-02-28T00:36:00;10.63;;;6.32;;
47812;SDS011;34221;45.296;9.516;2023-02-28T00:36:18;10.98;;;6.10;;
47812;SDS011;34221;45.296;9.516;2023-02-28T00:36:33;14.38;;;6.68;;
47812;SDS011;34221;45.296;9.516;2023-02-28T00:36:48;13.73;;;6.80;;
47812;SDS011;34221;45.296;9.516;2023-02-28T00:37:06;12.55;;;6.97;;
47812;SDS011;34221;45.296;9.516;2023-02-28T00:37:23;11.25;;;7.15;;
47812;SDS011;34221;45.296;9.516;2023-02-28T00:37:38;12.55;;;6.70;;
47812;SDS011;34221;45.296;9.516;2023-02-28T00:37:53;13.95;;;6.65;;
47812;SDS011;34221;45.296;9.516;2023-02-28T00:38:08;11.35;;;6.18;;
47812;SDS011;34221;45.296;9.516;2023-02-28T00:38:23;10.65;;;5.93;;
47812;SDS011;34221;45.296;9.516;2023-02-28T00:38:38;12.25;;;6.72;;
47812;SDS011;34221;45.296;9.516;2023-02-28T00:38:54;12.65;;;7.15;;
47812;SDS011;34221;45.296;9.516;2023-02-28T00:39:09;15.38;;;6.90;;
47812;SDS011;34221;45.296;9.516;2023-02-28T00:39:24;17.08;;;6.85;;
47812;SDS011;34221;45.296;9.516;2023-02-28T00:39:39;14.18;;;6.78;;
47812;SDS011;34221;45.296;9.516;2023-02-28T00:39:55;13.57;;;6.65;;
47812;SDS011;34221;45.296;9.516;2023-02-28T00:40:10;12.77;;;6.60;;
47812;SDS011;34221;45.296;9.516;2023-02-28T00:40:26;13.38;;;6.78;;
47812;SDS011;34221;45.296;9.516;2023-02-28T00:41:01;11.65;;;6.55;;
47812;SDS011;34221;45.296;9.516;2023-02-28T00:41:19;10.35;;;6.50;;
47812;SDS011;34221;45.296;9.516;2023-02-28T00:41:35;11.18;;;6.30;;
47812;SDS011;34221;45.296;9.516;2023-02-28T00:41:50;12.27;;;6.57;;
47812;SDS011;34221;45.296;9.516;2023-02-28T00:42:06;13.43;;;6.80;;
47812;SDS011;34221;45.296;9.516;2023-02-28T00:42:22;13.10;;;6.85;;
47812;SDS011;34221;45.296;9.516;2023-02-28T00:42:38;11.73;;;6.93;;
47812;SDS011;34221;45.296;9.516;2023-02-28T00:42:55;12.77;;;7.38;;
47812;SDS011;34221;45.296;9.516;2023-02-28T00:43:10;12.80;;;6.90;;
47812;SDS011;34221;45.296;9.516;2023-02-28T00:43:25;11.50;;;6.35;;
47812;SDS011;34221;45.296;9.516;2023-02-28T00:43:40;11.95;;;6.70;;
47812;SDS011;34221;45.296;9.516;2023-02-28T00:43:55;16.77;;;7.07;;
47812;SDS011;34221;45.296;9.516;2023-02-28T00:44:10;16.50;;;6.90;;
47812;SDS011;34221;45.296;9.516;2023-02-28T00:44:25;13.50;;;6.88;;
47812;SDS011;34221;45.296;9.516;2023-02-28T00:44:41;14.95;;;6.97;;
47812;SDS011;34221;45.296;9.516;2023-02-28T00:44:56;11.98;;;6.75;;
47812;SDS011;34221;45.296;9.516;2023-02-28T00:45:11;10.95;;;6.97;;
47812;SDS011;34221;45.296;9.516;2023-02-28T00:45:26;14.20;;;6.90;;
47812;SDS011;34221;45.296;9.516;2023-02-28T00:45:41;13.82;;;6.55;;
47812;SDS011;34221;45.296;9.516;2023-02-28T00:45:56;10.40;;;6.53;;
47812;SDS011;34221;45.296;9.516;2023-02-28T00:46:12;10.93;;;6.95;;
47812;SDS011;34221;45.296;9.516;2023-02-28T00:46:27;10.85;;;6.78;;
47812;SDS011;34221;45.296;9.516;2023-02-28T00:46:42;11.18;;;6.63;;
47812;SDS011;34221;45.296;9.516;2023-02-28T00:46:57;12.50;;;6.90;;
47812;SDS011;34221;45.296;9.516;2023-02-28T00:47:13;12.52;;;6.55;;
47812;SDS011;34221;45.296;9.516;2023-02-28T00:47:28;10.52;;;6.45;;
47812;SDS011;34221;45.296;9.516;2023-02-28T00:47:43;12.60;;;6.75;;
47812;SDS011;34221;45.296;9.516;2023-02-28T00:47:59;13.15;;;6.53;;
47812;SDS011;34221;45.296;9.516;2023-02-28T00:48:14;15.65;;;6.85;;
47812;SDS011;34221;45.296;9.516;2023-02-28T00:48:30;14.57;;;7.07;;
47812;SDS011;34221;45.296;9.516;2023-02-28T00:48:45;11.07;;;7.05;;
47812;SDS011;34221;45.296;9.516;2023-02-28T00:49:02;11.75;;;7.60;;
47812;SDS011;34221;45.296;9.516;2023-02-28T00:49:17;11.77;;;7.78;;
47812;SDS011;34221;45.296;9.516;2023-02-28T00:49:32;11.40;;;7.30;;
47812;SDS011;34221;45.296;9.516;2023-02-28T00:49:47;11.23;;;6.53;;
47812;SDS011;34221;45.296;9.516;2023-02-28T00:50:03;12.07;;;6.78;;
47812;SDS011;34221;45.296;9.516;2023-02-28T00:50:19;12.10;;;6.70;;
47812;SDS011;34221;45.296;9.516;2023-02-28T00:50:34;13.10;;;6.38;;
47812;SDS011;34221;45.296;9.516;2023-02-28T00:50:49;12.85;;;6.47;;
47812;SDS011;34221;45.296;9.516;2023-02-28T00:51:04;11.57;;;6.88;;
47812;SDS011;34221;45.296;9.516;2023-02-28T00:51:19;10.93;;;6.85;;
47812;SDS011;34221;45.296;9.516;2023-02-28T00:51:34;10.82;;;6.47;;
47812;SDS011;34221;45.296;9.516;2023-02-28T00:51:49;12.32;;;6.75;;
47812;SDS011;34221;45.296;9.516;2023-02-28T00:52:07;17.42;;;7.03;;
47812;SDS011;34221;45.296;9.516;2023-02-28T00:52:22;17.00;;;6.85;;
47812;SDS011;34221;45.296;9.516;2023-02-28T00:52:37;13.57;;;7.63;;
47812;SDS011;34221;45.296;9.516;2023-02-28T00:52:51;14.73;;;8.15;;
47812;SDS011;34221;45.296;9.516;2023-02-28T00:53:08;12.40;;;6.95;;
47812;SDS011;34221;45.296;9.516;2023-02-28T00:53:23;13.05;;;6.95;;
47812;SDS011;34221;45.296;9.516;2023-02-28T00:53:38;11.32;;;6.85;;
47812;SDS011;34221;45.296;9.516;2023-02-28T00:53:53;11.23;;;6.80;;
47812;SDS011;34221;45.296;9.516;2023-02-28T00:54:08;12.30;;;7.35;;
47812;SDS011;34221;45.296;9.516;2023-02-28T00:54:23;12.73;;;7.40;;
47812;SDS011;34221;45.296;9.516;2023-02-28T00:54:38;12.00;;;7.28;;
47812;SDS011;34221;45.296;9.516;2023-02-28T00:54:55;10.52;;;6.80;;
47812;SDS011;34221;45.296;9.516;2023-02-28T00:55:10;11.02;;;6.82;;
47812;SDS011;34221;45.296;9.516;2023-02-28T00:55:25;11.35;;;7.05;;
47812;SDS011;34221;45.296;9.516;2023-02-28T00:55:40;13.43;;;7.22;;
47812;SDS011;34221;45.296;9.516;2023-02-28T00:55:55;14.80;;;7.40;;
47812;SDS011;34221;45.296;9.516;2023-02-28T00:56:10;11.63;;;7.18;;
47812;SDS011;34221;45.296;9.516;2023-02-28T00:56:25;11.98;;;7.18;;
47812;SDS011;34221;45.296;9.516;2023-02-28T00:56:40;12.60;;;7.05;;
47812;SDS011;34221;45.296;9.516;2023-02-28T00:56:55;11.45;;;7.18;;
47812;SDS011;34221;45.296;9.516;2023-02-28T00:57:10;11.30;;;6.70;;
47812;SDS011;34221;45.296;9.516;2023-02-28T00:57:25;12.27;;;6.65;;
47812;SDS011;34221;45.296;9.516;2023-02-28T00:57:43;13.38;;;7.25;;
47812;SDS011;34221;45.296;9.516;2023-02-28T00:57:57;12.70;;;6.70;;
47812;SDS011;34221;45.296;9.516;2023-02-28T00:58:13;12.23;;;6.72;;
47812;SDS011;34221;45.296;9.516;2023-02-28T00:58:28;14.82;;;7.38;;
47812;SDS011;34221;45.296;9.516;2023-02-28T00:58:43;14.48;;;7.25;;
47812;SDS011;34221;45.296;9.516;2023-02-28T00:58:58;13.75;;;6.63;;
47812;SDS011;34221;45.296;9.516;2023-02-28T00:59:13;14.50;;;6.40;;
47812;SDS011;34221;45.296;9.516;2023-02-28T00:59:29;10.70;;;6.18;;
47812;SDS011;34221;45.296;9.516;2023-02-28T00:59:44;12.38;;;6.55;;
47812;SDS011;34221;45.296;9.516;2023-02-28T00:59:59;13.10;;;6.93;;
47812;SDS011;34221;45.296;9.516;2023-02-28T01:00:15;10.65;;;6.57;;
47812;SDS011;34221;45.296;9.516;2023-02-28T01:00:31;11.23;;;6.22;;
47812;SDS011;34221;45.296;9.516;2023-02-28T01:00:46;14.38;;;6.72;;
47812;SDS011;34221;45.296;9.516;2023-02-28T01:01:03;11.32;;;6.43;;
47812;SDS011;34221;45.296;9.516;2023-02-28T01:01:19;11.45;;;6.43;;
47812;SDS011;34221;45.296;9.516;2023-02-28T01:01:34;12.60;;;6.90;;
47812;SDS011;34221;45.296;9.516;2023-02-28T01:01:49;11.32;;;6.75;;
47812;SDS011;34221;45.296;9.516;2023-02-28T01:02:04;10.93;;;6.70;;
47812;SDS011;34221;45.296;9.516;2023-02-28T01:02:19;12.70;;;7.30;;
47812;SDS011;34221;45.296;9.516;2023-02-28T01:02:36;11.98;;;7.53;;
47812;SDS011;34221;45.296;9.516;2023-02-28T01:02:51;9.88;;;7.20;;
47812;SDS011;34221;45.296;9.516;2023-02-28T01:03:05;11.25;;;7.28;;
47812;SDS011;34221;45.296;9.516;2023-02-28T01:03:21;12.07;;;7.50;;
47812;SDS011;34221;45.296;9.516;2023-02-28T01:03:37;12.52;;;7.30;;
47812;SDS011;34221;45.296;9.516;2023-02-28T01:03:52;10.82;;;6.45;;
47812;SDS011;34221;45.296;9.516;2023-02-28T01:04:09;10.05;;;6.60;;
47812;SDS011;34221;45.296;9.516;2023-02-28T01:04:24;12.55;;;7.30;;
47812;SDS011;34221;45.296;9.516;2023-02-28T01:04:39;12.10;;;7.18;;
47812;SDS011;34221;45.296;9.516;2023-02-28T01:04:54;14.18;;;7.40;;
47812;SDS011;34221;45.296;9.516;2023-02-28T01:05:11;14.02;;;7.38;;
47812;SDS011;34221;45.296;9.516;2023-02-28T01:05:25;12.17;;;7.20;;
47812;SDS011;34221;45.296;9.516;2023-02-28T01:05:41;13.05;;;7.10;;
47812;SDS011;34221;45.296;9.516;2023-02-28T01:05:56;11.93;;;7.20;;
47812;SDS011;34221;45.296;9.516;2023-02-28T01:06:11;11.70;;;7.03;;
47812;SDS011;34221;45.296;9.516;2023-02-28T01:06:26;14.50;;;7.07;;
47812;SDS011;34221;45.296;9.516;2023-02-28T01:06:41;17.05;;;7.57;;
47812;SDS011;34221;45.296;9.516;2023-02-28T01:06:58;15.20;;;7.20;;
47812;SDS011;34221;45.296;9.516;2023-02-28T01:07:13;11.75;;;6.80;;
47812;SDS011;34221;45.296;9.516;2023-02-28T01:07:28;11.73;;;7.28;;
47812;SDS011;34221;45.296;9.516;2023-02-28T01:07:43;13.07;;;7.35;;
47812;SDS011;34221;45.296;9.516;2023-02-28T01:07:58;13.00;;;6.68;;
47812;SDS011;34221;45.296;9.516;2023-02-28T01:08:14;13.35;;;6.65;;
47812;SDS011;34221;45.296;9.516;2023-02-28T01:08:29;13.82;;;6.93;;
47812;SDS011;34221;45.296;9.516;2023-02-28T01:08:44;13.32;;;7.40;;
47812;SDS011;34221;45.296;9.516;2023-02-28T01:08:59;13.85;;;7.72;;
47812;SDS011;34221;45.296;9.516;2023-02-28T01:09:14;14.68;;;7.20;;
47812;SDS011;34221;45.296;9.516;2023-02-28T01:09:30;14.47;;;7.23;;
47812;SDS011;34221;45.296;9.516;2023-02-28T01:09:46;13.18;;;7.50;;
47812;SDS011;34221;45.296;9.516;2023-02-28T01:10:01;13.15;;;7.38;;
47812;SDS011;34221;45.296;9.516;2023-02-28T01:10:16;13.00;;;7.05;;
47812;SDS011;34221;45.296;9.516;2023-02-28T01:10:31;11.55;;;6.78;;
47812;SDS011;34221;45.296;9.516;2023-02-28T01:10:46;12.10;;;7.38;;
47812;SDS011;34221;45.296;9.516;2023-02-28T01:11:09;11.65;;;7.05;;
47812;SDS011;34221;45.296;9.516;2023-02-28T01:11:28;13.38;;;7.32;;
47812;SDS011;34221;45.296;9.516;2023-02-28T01:11:43;14.75;;;7.28;;
47812;SDS011;34221;45.296;9.516;2023-02-28T01:11:58;17.23;;;7.47;;
47812;SDS011;34221;45.296;9.516;2023-02-28T01:12:13;16.67;;;7.40;;
47812;SDS011;34221;45.296;9.516;2023-02-28T01:12:28;14.10;;;7.28;;
47812;SDS011;34221;45.296;9.516;2023-02-28T01:12:43;12.70;;;6.78;;
47812;SDS011;34221;45.296;9.516;2023-02-28T01:12:58;10.13;;;6.25;;
47812;SDS011;34221;45.296;9.516;2023-02-28T01:13:13;13.15;;;7.10;;
47812;SDS011;34221;45.296;9.516;2023-02-28T01:13:29;14.27;;;7.80;;
47812;SDS011;34221;45.296;9.516;2023-02-28T01:13:44;13.63;;;7.95;;
47812;SDS011;34221;45.296;9.516;2023-02-28T01:14:00;13.20;;;7.60;;
47812;SDS011;34221;45.296;9.516;2023-02-28T01:14:16;12.88;;;7.35;;
47812;SDS011;34221;45.296;9.516;2023-02-28T01:14:33;12.43;;;7.57;;
47812;SDS011;34221;45.296;9.516;2023-02-28T01:14:49;11.23;;;7.30;;
47812;SDS011;34221;45.296;9.516;2023-02-28T01:15:04;10.52;;;6.63;;
47812;SDS011;34221;45.296;9.516;2023-02-28T01:15:20;10.90;;;6.88;;
47812;SDS011;34221;45.296;9.516;2023-02-28T01:15:35;12.52;;;6.60;;
47812;SDS011;34221;45.296;9.516;2023-02-28T01:15:51;14.82;;;7.30;;
47812;SDS011;34221;45.296;9.516;2023-02-28T01:16:09;11.80;;;7.18;;
47812;SDS011;34221;45.296;9.516;2023-02-28T01:16:24;10.27;;;6.70;;
47812;SDS011;34221;45.296;9.516;2023-02-28T01:16:40;10.50;;;6.72;;
47812;SDS011;34221;45.296;9.516;2023-02-28T01:16:55;10.25;;;6.50;;
47812;SDS011;34221;45.296;9.516;2023-02-28T01:17:10;11.38;;;6.35;;
47812;SDS011;34221;45.296;9.516;2023-02-28T01:17:25;11.38;;;6.18;;
47812;SDS011;34221;45.296;9.516;2023-02-28T01:17:40;11.43;;;6.28;;
47812;SDS011;34221;45.296;9.516;2023-02-28T01:17:55;11.57;;;6.13;;
47812;SDS011;34221;45.296;9.516;2023-02-28T01:18:10;9.45;;;5.55;;
47812;SDS011;34221;45.296;9.516;2023-02-28T01:18:25;8.82;;;5.40;;
47812;SDS011;34221;45.296;9.516;2023-02-28T01:18:40;7.90;;;5.35;;
47812;SDS011;34221;45.296;9.516;2023-02-28T01:18:55;8.07;;;5.55;;
47812;SDS011;34221;45.296;9.516;2023-02-28T01:19:11;8.90;;;5.82;;
47812;SDS011;34221;45.296;9.516;2023-02-28T01:19:26;10.85;;;5.43;;
47812;SDS011;34221;45.296;9.516;2023-02-28T01:19:41;11.43;;;5.18;;
47812;SDS011;34221;45.296;9.516;2023-02-28T01:19:58;8.55;;;5.68;;
47812;SDS011;34221;45.296;9.516;2023-02-28T01:20:13;10.88;;;6.03;;
47812;SDS011;34221;45.296;9.516;2023-02-28T01:20:29;11.45;;;5.80;;
47812;SDS011;34221;45.296;9.516;2023-02-28T01:20:44;8.40;;;5.30;;
47812;SDS011;34221;45.296;9.516;2023-02-28T01:21:04;6.72;;;5.18;;
47812;SDS011;34221;45.296;9.516;2023-02-28T01:21:21;8.38;;;5.80;;
47812;SDS011;34221;45.296;9.516;2023-02-28T01:21:36;9.27;;;5.85;;
47812;SDS011;34221;45.296;9.516;2023-02-28T01:21:52;9.02;;;5.45;;
47812;SDS011;34221;45.296;9.516;2023-02-28T01:22:07;8.50;;;5.68;;
47812;SDS011;34221;45.296;9.516;2023-02-28T01:22:22;9.43;;;6.20;;
47812;SDS011;34221;45.296;9.516;2023-02-28T01:22:37;11.50;;;6.10;;
47812;SDS011;34221;45.296;9.516;2023-02-28T01:22:52;10.63;;;5.77;;
47812;SDS011;34221;45.296;9.516;2023-02-28T01:23:07;8.87;;;5.63;;
47812;SDS011;34221;45.296;9.516;2023-02-28T01:23:22;9.30;;;5.66;;
47812;SDS011;34221;45.296;9.516;2023-02-28T01:23:38;9.27;;;5.72;;
47812;SDS011;34221;45.296;9.516;2023-02-28T01:23:55;9.05;;;5.70;;
47812;SDS011;34221;45.296;9.516;2023-02-28T01:24:12;11.50;;;6.03;;
47812;SDS011;34221;45.296;9.516;2023-02-28T01:24:26;10.40;;;5.82;;
47812;SDS011;34221;45.296;9.516;2023-02-28T01:24:41;8.13;;;5.53;;
47812;SDS011;34221;45.296;9.516;2023-02-28T01:25:00;10.50;;;6.13;;
47812;SDS011;34221;45.296;9.516;2023-02-28T01:25:15;10.45;;;6.13;;
47812;SDS011;34221;45.296;9.516;2023-02-28T01:25:30;9.60;;;6.03;;
47812;SDS011;34221;45.296;9.516;2023-02-28T01:25:50;8.57;;;5.90;;
47812;SDS011;34221;45.296;9.516;2023-02-28T01:26:07;8.23;;;5.85;;
47812;SDS011;34221;45.296;9.516;2023-02-28T01:26:27;9.30;;;5.95;;
47812;SDS011;34221;45.296;9.516;2023-02-28T01:26:42;9.23;;;6.22;;
47812;SDS011;34221;45.296;9.516;2023-02-28T01:26:57;8.77;;;6.20;;
47812;SDS011;34221;45.296;9.516;2023-02-28T01:27:12;10.45;;;6.03;;
47812;SDS011;34221;45.296;9.516;2023-02-28T01:27:28;11.52;;;6.15;;
47812;SDS011;34221;45.296;9.516;2023-02-28T01:27:43;9.73;;;5.88;;
47812;SDS011;34221;45.296;9.516;2023-02-28T01:27:59;9.23;;;5.65;;
47812;SDS011;34221;45.296;9.516;2023-02-28T01:28:15;9.07;;;5.70;;
47812;SDS011;34221;45.296;9.516;2023-02-28T01:28:30;9.88;;;6.05;;
47812;SDS011;34221;45.296;9.516;2023-02-28T01:28:45;11.18;;;6.15;;
47812;SDS011;34221;45.296;9.516;2023-02-28T01:29:00;11.13;;;5.97;;
47812;SDS011;34221;45.296;9.516;2023-02-28T01:29:15;9.18;;;5.80;;
47812;SDS011;34221;45.296;9.516;2023-02-28T01:29:30;8.18;;;5.57;;
47812;SDS011;34221;45.296;9.516;2023-02-28T01:29:45;8.50;;;5.72;;
47812;SDS011;34221;45.296;9.516;2023-02-28T01:30:00;9.00;;;5.70;;
47812;SDS011;34221;45.296;9.516;2023-02-28T01:30:15;9.66;;;5.60;;
47812;SDS011;34221;45.296;9.516;2023-02-28T01:30:31;9.85;;;5.97;;
47812;SDS011;34221;45.296;9.516;2023-02-28T01:30:47;9.53;;;6.07;;
47812;SDS011;34221;45.296;9.516;2023-02-28T01:31:03;12.05;;;6.32;;
47812;SDS011;34221;45.296;9.516;2023-02-28T01:31:20;13.40;;;6.75;;
47812;SDS011;34221;45.296;9.516;2023-02-28T01:31:37;9.73;;;6.40;;
47812;SDS011;34221;45.296;9.516;2023-02-28T01:31:52;9.50;;;5.97;;
47812;SDS011;34221;45.296;9.516;2023-02-28T01:32:06;9.38;;;5.68;;
47812;SDS011;34221;45.296;9.516;2023-02-28T01:32:23;8.82;;;5.63;;
47812;SDS011;34221;45.296;9.516;2023-02-28T01:32:38;8.68;;;5.57;;
47812;SDS011;34221;45.296;9.516;2023-02-28T01:32:53;9.40;;;6.13;;
47812;SDS011;34221;45.296;9.516;2023-02-28T01:33:08;13.32;;;6.70;;
47812;SDS011;34221;45.296;9.516;2023-02-28T01:33:23;12.57;;;6.18;;
47812;SDS011;34221;45.296;9.516;2023-02-28T01:33:38;8.90;;;5.82;;